sensor_id;sensor_type;location;lat;lon;timestamp;P1;durP1;ratioP1;P2;durP2;ratioP2
28545;SDS011;15749;49.606;8.738;2023-07-02T00:01:17;1.27;;;0.90;;
28545;SDS011;15749;49.606;8.738;2023-07-02T00:03:46;1.60;;;0.90;;
28545;SDS011;15749;49.606;8.738;2023-07-02T00:06:17;0.70;;;0.60;;
28545;SDS011;15749;49.606;8.738;2023-07-02T00:08:46;0.70;;;0.70;;
28545;SDS011;15749;49.606;8.738;2023-07-02T00:11:15;0.87;;;0.70;;
28545;SDS011;15749;49.606;8.738;2023-07-02T00:13:45;0.93;;;0.90;;
28545;SDS011;15749;49.606;8.738;2023-07-02T00:16:14;0.73;;;0.70;;
28545;SDS011;15749;49.606;8.738;2023-07-02T00:18:43;0.90;;;0.60;;
28545;SDS011;15749;49.606;8.738;2023-07-02T00:21:16;0.70;;;0.70;;
28545;SDS011;15749;49.606;8.738;2023-07-02T00:23:46;0.90;;;0.70;;
28545;SDS011;15749;49.606;8.738;2023-07-02T00:26:15;0.80;;;0.73;;
28545;SDS011;15749;49.606;8.738;2023-07-02T00:28:44;1.23;;;0.77;;
28545;SDS011;15749;49.606;8.738;2023-07-02T00:31:13;0.73;;;0.73;;
28545;SDS011;15749;49.606;8.738;2023-07-02T00:33:42;0.90;;;0.70;;
28545;SDS011;15749;49.606;8.738;2023-07-02T00:36:12;0.97;;;0.80;;
28545;SDS011;15749;49.606;8.738;2023-07-02T00:38:44;0.77;;;0.73;;
28545;SDS011;15749;49.606;8.738;2023-07-02T00:41:14;1.13;;;0.90;;
28545;SDS011;15749;49.606;8.738;2023-07-02T00:43:44;1.00;;;0.90;;
28545;SDS011;15749;49.606;8.738;2023-07-02T00:46:14;1.00;;;0.80;;
28545;SDS011;15749;49.606;8.738;2023-07-02T00:48:47;1.00;;;0.90;;
28545;SDS011;15749;49.606;8.738;2023-07-02T00:51:18;1.13;;;0.70;;
28545;SDS011;15749;49.606;8.738;2023-07-02T00:53:54;1.10;;;0.80;;
28545;SDS011;15749;49.606;8.738;2023-07-02T00:56:25;0.70;;;0.70;;
28545;SDS011;15749;49.606;8.738;2023-07-02T00:58:55;1.53;;;0.80;;
28545;SDS011;15749;49.606;8.738;2023-07-02T01:01:27;0.83;;;0.80;;
28545;SDS011;15749;49.606;8.738;2023-07-02T01:03:57;1.30;;;0.80;;
28545;SDS011;15749;49.606;8.738;2023-07-02T01:06:29;0.77;;;0.63;;
28545;SDS011;15749;49.606;8.738;2023-07-02T01:09:00;0.90;;;0.70;;
28545;SDS011;15749;49.606;8.738;2023-07-02T01:11:32;1.00;;;0.90;;
28545;SDS011;15749;49.606;8.738;2023-07-02T01:14:08;2.60;;;1.20;;
28545;SDS011;15749;49.606;8.738;2023-07-02T01:16:40;1.50;;;0.83;;
28545;SDS011;15749;49.606;8.738;2023-07-02T01:19:13;1.00;;;0.90;;
28545;SDS011;15749;49.606;8.738;2023-07-02T01:21:49;0.90;;;0.80;;
28545;SDS011;15749;49.606;8.738;2023-07-02T01:24:18;0.77;;;0.73;;
28545;SDS011;15749;49.606;8.738;2023-07-02T01:26:50;1.10;;;0.90;;
28545;SDS011;15749;49.606;8.738;2023-07-02T01:29:19;1.20;;;0.87;;
28545;SDS011;15749;49.606;8.738;2023-07-02T01:31:49;0.70;;;0.67;;
28545;SDS011;15749;49.606;8.738;2023-07-02T01:34:18;1.00;;;0.80;;
28545;SDS011;15749;49.606;8.738;2023-07-02T01:36:47;1.40;;;0.83;;
28545;SDS011;15749;49.606;8.738;2023-07-02T01:39:17;1.00;;;0.80;;
28545;SDS011;15749;49.606;8.738;2023-07-02T01:41:49;1.60;;;1.10;;
28545;SDS011;15749;49.606;8.738;2023-07-02T01:44:20;1.30;;;1.03;;
28545;SDS011;15749;49.606;8.738;2023-07-02T01:46:50;1.30;;;1.00;;
28545;SDS011;15749;49.606;8.738;2023-07-02T01:49:19;1.17;;;1.00;;
28545;SDS011;15749;49.606;8.738;2023-07-02T01:51:50;1.43;;;1.10;;
28545;SDS011;15749;49.606;8.738;2023-07-02T01:54:20;1.00;;;0.90;;
28545;SDS011;15749;49.606;8.738;2023-07-02T01:56:51;1.73;;;1.07;;
28545;SDS011;15749;49.606;8.738;2023-07-02T01:59:21;1.00;;;0.90;;
28545;SDS011;15749;49.606;8.738;2023-07-02T02:01:50;3.27;;;1.20;;
28545;SDS011;15749;49.606;8.738;2023-07-02T02:04:19;1.00;;;0.90;;
28545;SDS011;15749;49.606;8.738;2023-07-02T02:06:52;1.50;;;1.00;;
28545;SDS011;15749;49.606;8.738;2023-07-02T02:09:24;1.40;;;1.10;;
28545;SDS011;15749;49.606;8.738;2023-07-02T02:11:55;1.40;;;1.30;;
28545;SDS011;15749;49.606;8.738;2023-07-02T02:14:24;1.53;;;1.40;;
28545;SDS011;15749;49.606;8.738;2023-07-02T02:16:53;1.90;;;1.33;;
28545;SDS011;15749;49.606;8.738;2023-07-02T02:19:23;1.83;;;1.40;;
28545;SDS011;15749;49.606;8.738;2023-07-02T02:21:54;1.30;;;1.20;;
28545;SDS011;15749;49.606;8.738;2023-07-02T02:24:23;2.33;;;1.63;;
28545;SDS011;15749;49.606;8.738;2023-07-02T02:26:54;2.63;;;1.30;;
28545;SDS011;15749;49.606;8.738;2023-07-02T02:29:23;2.20;;;1.50;;
28545;SDS011;15749;49.606;8.738;2023-07-02T02:31:52;1.33;;;1.00;;
28545;SDS011;15749;49.606;8.738;2023-07-02T02:34:22;1.50;;;1.40;;
28545;SDS011;15749;49.606;8.738;2023-07-02T02:36:51;1.60;;;1.30;;
28545;SDS011;15749;49.606;8.738;2023-07-02T02:39:22;1.73;;;1.37;;
28545;SDS011;15749;49.606;8.738;2023-07-02T02:41:51;1.40;;;1.30;;
28545;SDS011;15749;49.606;8.738;2023-07-02T02:44:21;1.67;;;1.20;;
28545;SDS011;15749;49.606;8.738;2023-07-02T02:46:50;1.43;;;1.17;;
28545;SDS011;15749;49.606;8.738;2023-07-02T02:49:19;1.57;;;1.43;;
28545;SDS011;15749;49.606;8.738;2023-07-02T02:51:49;1.30;;;1.20;;
28545;SDS011;15749;49.606;8.738;2023-07-02T02:54:19;1.50;;;1.40;;
28545;SDS011;15749;49.606;8.738;2023-07-02T02:56:48;2.73;;;2.03;;
28545;SDS011;15749;49.606;8.738;2023-07-02T02:59:17;3.13;;;2.70;;
28545;SDS011;15749;49.606;8.738;2023-07-02T03:01:46;2.73;;;2.43;;
28545;SDS011;15749;49.606;8.738;2023-07-02T03:04:16;4.53;;;3.00;;
28545;SDS011;15749;49.606;8.738;2023-07-02T03:06:45;4.63;;;2.97;;
28545;SDS011;15749;49.606;8.738;2023-07-02T03:09:14;3.37;;;2.90;;
28545;SDS011;15749;49.606;8.738;2023-07-02T03:11:45;4.30;;;2.50;;
28545;SDS011;15749;49.606;8.738;2023-07-02T03:14:18;2.13;;;1.93;;
28545;SDS011;15749;49.606;8.738;2023-07-02T03:16:47;2.50;;;2.00;;
28545;SDS011;15749;49.606;8.738;2023-07-02T03:19:16;2.37;;;2.10;;
28545;SDS011;15749;49.606;8.738;2023-07-02T03:21:45;2.43;;;2.10;;
28545;SDS011;15749;49.606;8.738;2023-07-02T03:24:15;3.03;;;2.30;;
28545;SDS011;15749;49.606;8.738;2023-07-02T03:26:45;3.70;;;2.90;;
28545;SDS011;15749;49.606;8.738;2023-07-02T03:29:15;3.47;;;2.57;;
28545;SDS011;15749;49.606;8.738;2023-07-02T03:31:46;4.43;;;2.33;;
28545;SDS011;15749;49.606;8.738;2023-07-02T03:34:17;2.50;;;2.20;;
28545;SDS011;15749;49.606;8.738;2023-07-02T03:36:49;3.73;;;2.37;;
28545;SDS011;15749;49.606;8.738;2023-07-02T03:39:18;2.37;;;2.17;;
28545;SDS011;15749;49.606;8.738;2023-07-02T03:41:49;3.63;;;2.47;;
28545;SDS011;15749;49.606;8.738;2023-07-02T03:44:18;3.40;;;2.90;;
28545;SDS011;15749;49.606;8.738;2023-07-02T03:46:47;4.10;;;2.53;;
28545;SDS011;15749;49.606;8.738;2023-07-02T03:49:19;3.70;;;2.90;;
28545;SDS011;15749;49.606;8.738;2023-07-02T03:51:48;4.17;;;3.10;;
28545;SDS011;15749;49.606;8.738;2023-07-02T03:54:17;3.83;;;3.03;;
28545;SDS011;15749;49.606;8.738;2023-07-02T03:56:46;3.23;;;2.90;;
28545;SDS011;15749;49.606;8.738;2023-07-02T03:59:17;3.03;;;2.67;;
28545;SDS011;15749;49.606;8.738;2023-07-02T04:01:46;3.37;;;3.07;;
28545;SDS011;15749;49.606;8.738;2023-07-02T04:04:18;3.67;;;3.00;;
28545;SDS011;15749;49.606;8.738;2023-07-02T04:06:49;4.50;;;3.13;;
28545;SDS011;15749;49.606;8.738;2023-07-02T04:09:18;3.67;;;3.17;;
28545;SDS011;15749;49.606;8.738;2023-07-02T04:11:49;3.77;;;2.77;;
28545;SDS011;15749;49.606;8.738;2023-07-02T04:14:18;3.00;;;2.70;;
28545;SDS011;15749;49.606;8.738;2023-07-02T04:16:47;2.93;;;2.63;;
28545;SDS011;15749;49.606;8.738;2023-07-02T04:19:16;3.23;;;2.93;;
28545;SDS011;15749;49.606;8.738;2023-07-02T04:21:45;3.57;;;2.83;;
28545;SDS011;15749;49.606;8.738;2023-07-02T04:24:15;3.47;;;3.17;;
28545;SDS011;15749;49.606;8.738;2023-07-02T04:26:45;3.53;;;3.23;;
28545;SDS011;15749;49.606;8.738;2023-07-02T04:29:35;3.73;;;3.23;;
28545;SDS011;15749;49.606;8.738;2023-07-02T04:32:05;4.17;;;3.40;;
28545;SDS011;15749;49.606;8.738;2023-07-02T04:34:35;3.27;;;2.97;;
28545;SDS011;15749;49.606;8.738;2023-07-02T04:37:05;5.20;;;4.07;;
28545;SDS011;15749;49.606;8.738;2023-07-02T04:39:38;4.03;;;3.23;;
28545;SDS011;15749;49.606;8.738;2023-07-02T04:42:08;4.17;;;3.73;;
28545;SDS011;15749;49.606;8.738;2023-07-02T04:44:43;3.80;;;3.20;;
28545;SDS011;15749;49.606;8.738;2023-07-02T04:47:13;3.73;;;2.97;;
28545;SDS011;15749;49.606;8.738;2023-07-02T04:49:46;4.90;;;3.50;;
28545;SDS011;15749;49.606;8.738;2023-07-02T04:52:15;4.30;;;3.50;;
28545;SDS011;15749;49.606;8.738;2023-07-02T04:54:45;3.87;;;3.40;;
28545;SDS011;15749;49.606;8.738;2023-07-02T04:57:14;3.67;;;2.80;;
28545;SDS011;15749;49.606;8.738;2023-07-02T04:59:45;6.03;;;3.20;;
28545;SDS011;15749;49.606;8.738;2023-07-02T05:02:15;3.53;;;2.93;;
28545;SDS011;15749;49.606;8.738;2023-07-02T05:04:44;3.73;;;2.67;;
28545;SDS011;15749;49.606;8.738;2023-07-02T05:07:14;3.57;;;2.97;;
28545;SDS011;15749;49.606;8.738;2023-07-02T05:09:44;3.50;;;3.03;;
28545;SDS011;15749;49.606;8.738;2023-07-02T05:12:16;3.47;;;2.77;;
28545;SDS011;15749;49.606;8.738;2023-07-02T05:14:46;2.93;;;2.63;;
28545;SDS011;15749;49.606;8.738;2023-07-02T05:17:16;4.00;;;3.30;;
28545;SDS011;15749;49.606;8.738;2023-07-02T05:19:45;3.17;;;2.87;;
28545;SDS011;15749;49.606;8.738;2023-07-02T05:22:15;4.00;;;3.07;;
28545;SDS011;15749;49.606;8.738;2023-07-02T05:24:46;3.00;;;2.60;;
28545;SDS011;15749;49.606;8.738;2023-07-02T05:27:15;5.83;;;2.73;;
28545;SDS011;15749;49.606;8.738;2023-07-02T05:29:46;2.97;;;2.67;;
28545;SDS011;15749;49.606;8.738;2023-07-02T05:32:19;4.93;;;3.03;;
28545;SDS011;15749;49.606;8.738;2023-07-02T05:34:49;3.33;;;2.70;;
28545;SDS011;15749;49.606;8.738;2023-07-02T05:37:19;3.27;;;2.90;;
28545;SDS011;15749;49.606;8.738;2023-07-02T05:39:49;4.20;;;2.73;;
28545;SDS011;15749;49.606;8.738;2023-07-02T05:42:18;6.20;;;3.00;;
28545;SDS011;15749;49.606;8.738;2023-07-02T05:44:49;3.33;;;2.90;;
28545;SDS011;15749;49.606;8.738;2023-07-02T05:47:19;3.73;;;3.13;;
28545;SDS011;15749;49.606;8.738;2023-07-02T05:49:48;3.57;;;3.10;;
28545;SDS011;15749;49.606;8.738;2023-07-02T05:52:18;4.43;;;3.03;;
28545;SDS011;15749;49.606;8.738;2023-07-02T05:54:50;4.27;;;3.67;;
28545;SDS011;15749;49.606;8.738;2023-07-02T05:57:19;4.97;;;4.40;;
28545;SDS011;15749;49.606;8.738;2023-07-02T05:59:53;5.67;;;4.17;;
28545;SDS011;15749;49.606;8.738;2023-07-02T06:02:23;5.13;;;3.67;;
28545;SDS011;15749;49.606;8.738;2023-07-02T06:04:52;5.90;;;4.60;;
28545;SDS011;15749;49.606;8.738;2023-07-02T06:07:24;4.73;;;3.73;;
28545;SDS011;15749;49.606;8.738;2023-07-02T06:09:58;5.63;;;4.27;;
28545;SDS011;15749;49.606;8.738;2023-07-02T06:12:28;4.43;;;3.97;;
28545;SDS011;15749;49.606;8.738;2023-07-02T06:15:00;4.77;;;4.00;;
28545;SDS011;15749;49.606;8.738;2023-07-02T06:17:37;4.00;;;3.60;;
28545;SDS011;15749;49.606;8.738;2023-07-02T06:20:08;8.30;;;3.97;;
28545;SDS011;15749;49.606;8.738;2023-07-02T06:22:55;4.17;;;3.77;;
28545;SDS011;15749;49.606;8.738;2023-07-02T06:25:25;4.20;;;3.77;;
28545;SDS011;15749;49.606;8.738;2023-07-02T06:27:55;4.73;;;4.13;;
28545;SDS011;15749;49.606;8.738;2023-07-02T06:30:27;5.80;;;4.60;;
28545;SDS011;15749;49.606;8.738;2023-07-02T06:32:56;3.93;;;3.63;;
28545;SDS011;15749;49.606;8.738;2023-07-02T06:35:29;5.27;;;3.87;;
28545;SDS011;15749;49.606;8.738;2023-07-02T06:38:11;5.50;;;3.73;;
28545;SDS011;15749;49.606;8.738;2023-07-02T06:40:44;5.37;;;4.47;;
28545;SDS011;15749;49.606;8.738;2023-07-02T06:43:18;5.43;;;4.20;;
28545;SDS011;15749;49.606;8.738;2023-07-02T06:53:02;4.17;;;3.60;;
28545;SDS011;15749;49.606;8.738;2023-07-02T07:01:08;4.87;;;3.50;;
28545;SDS011;15749;49.606;8.738;2023-07-02T07:08:30;6.07;;;4.80;;
28545;SDS011;15749;49.606;8.738;2023-07-02T07:11:00;6.07;;;5.20;;
28545;SDS011;15749;49.606;8.738;2023-07-02T07:13:39;8.00;;;5.37;;
28545;SDS011;15749;49.606;8.738;2023-07-02T07:16:28;6.07;;;5.23;;
28545;SDS011;15749;49.606;8.738;2023-07-02T07:19:07;5.37;;;4.80;;
28545;SDS011;15749;49.606;8.738;2023-07-02T07:23:59;5.70;;;4.50;;
28545;SDS011;15749;49.606;8.738;2023-07-02T07:27:25;7.23;;;4.57;;
28545;SDS011;15749;49.606;8.738;2023-07-02T07:35:17;5.37;;;4.87;;
28545;SDS011;15749;49.606;8.738;2023-07-02T07:37:49;7.60;;;6.07;;
28545;SDS011;15749;49.606;8.738;2023-07-02T07:40:23;6.43;;;5.77;;
28545;SDS011;15749;49.606;8.738;2023-07-02T07:43:16;5.90;;;4.97;;
28545;SDS011;15749;49.606;8.738;2023-07-02T08:00:18;6.50;;;5.03;;
28545;SDS011;15749;49.606;8.738;2023-07-02T08:03:27;5.90;;;5.30;;
28545;SDS011;15749;49.606;8.738;2023-07-02T08:06:00;6.00;;;5.37;;
28545;SDS011;15749;49.606;8.738;2023-07-02T08:08:33;6.17;;;5.57;;
28545;SDS011;15749;49.606;8.738;2023-07-02T08:14:25;6.33;;;4.97;;
28545;SDS011;15749;49.606;8.738;2023-07-02T08:20:59;6.57;;;4.37;;
28545;SDS011;15749;49.606;8.738;2023-07-02T08:23:57;5.83;;;5.23;;
28545;SDS011;15749;49.606;8.738;2023-07-02T08:26:28;5.90;;;4.87;;
28545;SDS011;15749;49.606;8.738;2023-07-02T08:29:09;7.17;;;5.47;;
28545;SDS011;15749;49.606;8.738;2023-07-02T08:31:58;8.43;;;5.67;;
28545;SDS011;15749;49.606;8.738;2023-07-02T08:34:29;6.37;;;5.57;;
28545;SDS011;15749;49.606;8.738;2023-07-02T08:37:05;6.70;;;5.37;;
28545;SDS011;15749;49.606;8.738;2023-07-02T08:42:11;7.13;;;5.43;;
28545;SDS011;15749;49.606;8.738;2023-07-02T08:45:12;5.70;;;5.10;;
28545;SDS011;15749;49.606;8.738;2023-07-02T08:50:45;6.70;;;6.00;;
28545;SDS011;15749;49.606;8.738;2023-07-02T08:53:17;7.97;;;6.53;;
28545;SDS011;15749;49.606;8.738;2023-07-02T08:55:47;8.23;;;5.80;;
28545;SDS011;15749;49.606;8.738;2023-07-02T08:58:26;6.53;;;5.70;;
28545;SDS011;15749;49.606;8.738;2023-07-02T09:01:06;7.13;;;5.85;;
28545;SDS011;15749;49.606;8.738;2023-07-02T09:07:09;6.77;;;6.07;;
28545;SDS011;15749;49.606;8.738;2023-07-02T09:09:45;6.28;;;5.38;;
28545;SDS011;15749;49.606;8.738;2023-07-02T09:13:07;8.60;;;6.80;;
28545;SDS011;15749;49.606;8.738;2023-07-02T09:15:44;8.68;;;7.18;;
28545;SDS011;15749;49.606;8.738;2023-07-02T09:18:15;8.55;;;7.63;;
28545;SDS011;15749;49.606;8.738;2023-07-02T09:20:54;8.10;;;7.17;;
28545;SDS011;15749;49.606;8.738;2023-07-02T09:23:37;8.43;;;7.38;;
28545;SDS011;15749;49.606;8.738;2023-07-02T09:26:23;8.07;;;6.85;;
28545;SDS011;15749;49.606;8.738;2023-07-02T09:32:07;7.80;;;6.68;;
28545;SDS011;15749;49.606;8.738;2023-07-02T09:37:42;8.07;;;6.47;;
28545;SDS011;15749;49.606;8.738;2023-07-02T09:40:15;7.45;;;6.22;;
28545;SDS011;15749;49.606;8.738;2023-07-02T09:42:45;7.90;;;6.90;;
28545;SDS011;15749;49.606;8.738;2023-07-02T09:45:19;8.00;;;6.57;;
28545;SDS011;15749;49.606;8.738;2023-07-02T09:48:17;7.72;;;6.93;;
28545;SDS011;15749;49.606;8.738;2023-07-02T09:50:49;8.27;;;6.60;;
28545;SDS011;15749;49.606;8.738;2023-07-02T09:53:19;8.05;;;7.25;;
28545;SDS011;15749;49.606;8.738;2023-07-02T09:55:52;9.57;;;6.45;;
28545;SDS011;15749;49.606;8.738;2023-07-02T09:58:21;8.07;;;6.40;;
28545;SDS011;15749;49.606;8.738;2023-07-02T10:00:53;9.13;;;7.05;;
28545;SDS011;15749;49.606;8.738;2023-07-02T10:03:32;7.03;;;6.00;;
28545;SDS011;15749;49.606;8.738;2023-07-02T10:06:13;8.45;;;6.35;;
28545;SDS011;15749;49.606;8.738;2023-07-02T10:08:54;8.20;;;6.90;;
28545;SDS011;15749;49.606;8.738;2023-07-02T10:11:38;6.70;;;6.00;;
28545;SDS011;15749;49.606;8.738;2023-07-02T10:14:49;7.07;;;6.13;;
28545;SDS011;15749;49.606;8.738;2023-07-02T10:17:30;6.70;;;5.68;;
28545;SDS011;15749;49.606;8.738;2023-07-02T10:20:32;8.55;;;7.05;;
28545;SDS011;15749;49.606;8.738;2023-07-02T10:23:07;8.02;;;7.05;;
28545;SDS011;15749;49.606;8.738;2023-07-02T10:33:46;7.03;;;6.10;;
28545;SDS011;15749;49.606;8.738;2023-07-02T10:36:20;7.63;;;6.88;;
28545;SDS011;15749;49.606;8.738;2023-07-02T10:39:04;8.50;;;7.28;;
28545;SDS011;15749;49.606;8.738;2023-07-02T10:42:15;7.63;;;6.85;;
28545;SDS011;15749;49.606;8.738;2023-07-02T10:48:19;8.43;;;7.50;;
28545;SDS011;15749;49.606;8.738;2023-07-02T10:50:52;8.57;;;7.50;;
28545;SDS011;15749;49.606;8.738;2023-07-02T10:53:32;9.63;;;7.97;;
28545;SDS011;15749;49.606;8.738;2023-07-02T10:56:15;9.40;;;7.10;;
28545;SDS011;15749;49.606;8.738;2023-07-02T10:58:52;11.57;;;8.68;;
28545;SDS011;15749;49.606;8.738;2023-07-02T11:09:58;12.05;;;7.63;;
28545;SDS011;15749;49.606;8.738;2023-07-02T11:12:28;8.38;;;7.40;;
28545;SDS011;15749;49.606;8.738;2023-07-02T11:15:06;8.45;;;7.60;;
28545;SDS011;15749;49.606;8.738;2023-07-02T11:17:36;10.18;;;7.60;;
28545;SDS011;15749;49.606;8.738;2023-07-02T11:20:08;8.80;;;7.80;;
28545;SDS011;15749;49.606;8.738;2023-07-02T11:22:37;9.07;;;8.18;;
28545;SDS011;15749;49.606;8.738;2023-07-02T11:25:10;13.75;;;9.52;;
28545;SDS011;15749;49.606;8.738;2023-07-02T11:27:43;10.77;;;9.65;;
28545;SDS011;15749;49.606;8.738;2023-07-02T11:30:13;9.70;;;8.70;;
28545;SDS011;15749;49.606;8.738;2023-07-02T11:32:49;9.40;;;7.72;;
28545;SDS011;15749;49.606;8.738;2023-07-02T11:35:20;10.35;;;8.52;;
28545;SDS011;15749;49.606;8.738;2023-07-02T11:37:50;9.60;;;8.55;;
28545;SDS011;15749;49.606;8.738;2023-07-02T11:40:24;11.43;;;9.15;;
28545;SDS011;15749;49.606;8.738;2023-07-02T11:42:53;10.43;;;8.05;;
28545;SDS011;15749;49.606;8.738;2023-07-02T11:45:22;9.93;;;8.82;;
28545;SDS011;15749;49.606;8.738;2023-07-02T11:47:51;11.52;;;8.98;;
28545;SDS011;15749;49.606;8.738;2023-07-02T11:50:20;10.48;;;9.35;;
28545;SDS011;15749;49.606;8.738;2023-07-02T11:52:53;8.07;;;7.28;;
28545;SDS011;15749;49.606;8.738;2023-07-02T11:55:23;9.13;;;7.30;;
28545;SDS011;15749;49.606;8.738;2023-07-02T11:57:53;10.70;;;8.23;;
28545;SDS011;15749;49.606;8.738;2023-07-02T12:00:22;10.30;;;9.20;;
28545;SDS011;15749;49.606;8.738;2023-07-02T12:02:51;12.00;;;9.20;;
28545;SDS011;15749;49.606;8.738;2023-07-02T12:05:20;10.10;;;8.73;;
28545;SDS011;15749;49.606;8.738;2023-07-02T12:07:52;8.23;;;7.43;;
28545;SDS011;15749;49.606;8.738;2023-07-02T12:10:26;9.23;;;7.95;;
28545;SDS011;15749;49.606;8.738;2023-07-02T12:12:55;9.88;;;8.40;;
28545;SDS011;15749;49.606;8.738;2023-07-02T12:15:24;10.70;;;9.02;;
28545;SDS011;15749;49.606;8.738;2023-07-02T12:17:53;10.57;;;9.27;;
28545;SDS011;15749;49.606;8.738;2023-07-02T12:20:22;10.05;;;8.63;;
28545;SDS011;15749;49.606;8.738;2023-07-02T12:22:51;10.02;;;8.85;;
28545;SDS011;15749;49.606;8.738;2023-07-02T12:25:21;30.45;;;9.60;;
28545;SDS011;15749;49.606;8.738;2023-07-02T12:27:51;9.43;;;8.07;;
28545;SDS011;15749;49.606;8.738;2023-07-02T12:30:20;9.25;;;7.93;;
28545;SDS011;15749;49.606;8.738;2023-07-02T12:32:49;8.98;;;8.00;;
28545;SDS011;15749;49.606;8.738;2023-07-02T12:35:18;9.35;;;8.07;;
28545;SDS011;15749;49.606;8.738;2023-07-02T12:37:48;11.27;;;8.50;;
28545;SDS011;15749;49.606;8.738;2023-07-02T12:40:19;9.63;;;8.02;;
28545;SDS011;15749;49.606;8.738;2023-07-02T12:42:48;10.18;;;8.32;;
28545;SDS011;15749;49.606;8.738;2023-07-02T12:45:19;11.88;;;8.77;;
28545;SDS011;15749;49.606;8.738;2023-07-02T12:47:48;11.27;;;8.77;;
28545;SDS011;15749;49.606;8.738;2023-07-02T12:50:17;10.60;;;8.15;;
28545;SDS011;15749;49.606;8.738;2023-07-02T12:52:47;9.27;;;8.15;;
28545;SDS011;15749;49.606;8.738;2023-07-02T12:55:16;9.55;;;8.20;;
28545;SDS011;15749;49.606;8.738;2023-07-02T12:57:45;8.82;;;7.93;;
28545;SDS011;15749;49.606;8.738;2023-07-02T13:00:16;9.00;;;8.05;;
28545;SDS011;15749;49.606;8.738;2023-07-02T13:02:46;10.32;;;8.35;;
28545;SDS011;15749;49.606;8.738;2023-07-02T13:05:31;10.27;;;7.35;;
28545;SDS011;15749;49.606;8.738;2023-07-02T13:08:00;10.43;;;8.57;;
28545;SDS011;15749;49.606;8.738;2023-07-02T13:10:29;9.95;;;8.52;;
28545;SDS011;15749;49.606;8.738;2023-07-02T13:12:59;12.50;;;9.05;;
28545;SDS011;15749;49.606;8.738;2023-07-02T13:15:41;15.52;;;8.63;;
28545;SDS011;15749;49.606;8.738;2023-07-02T13:18:10;11.20;;;8.23;;
28545;SDS011;15749;49.606;8.738;2023-07-02T13:20:39;9.93;;;8.13;;
28545;SDS011;15749;49.606;8.738;2023-07-02T13:23:08;8.50;;;7.60;;
28545;SDS011;15749;49.606;8.738;2023-07-02T13:25:37;9.93;;;8.07;;
28545;SDS011;15749;49.606;8.738;2023-07-02T13:28:07;10.02;;;8.43;;
28545;SDS011;15749;49.606;8.738;2023-07-02T13:30:36;9.00;;;7.60;;
28545;SDS011;15749;49.606;8.738;2023-07-02T13:33:06;8.48;;;7.65;;
28545;SDS011;15749;49.606;8.738;2023-07-02T13:35:35;8.93;;;7.78;;
28545;SDS011;15749;49.606;8.738;2023-07-02T13:38:05;10.35;;;8.85;;
28545;SDS011;15749;49.606;8.738;2023-07-02T13:40:34;10.02;;;8.93;;
28545;SDS011;15749;49.606;8.738;2023-07-02T13:43:03;8.32;;;7.53;;
28545;SDS011;15749;49.606;8.738;2023-07-02T13:45:32;11.57;;;9.02;;
28545;SDS011;15749;49.606;8.738;2023-07-02T13:48:01;9.63;;;8.63;;
28545;SDS011;15749;49.606;8.738;2023-07-02T13:50:33;9.18;;;8.18;;
28545;SDS011;15749;49.606;8.738;2023-07-02T13:53:02;11.55;;;8.40;;
28545;SDS011;15749;49.606;8.738;2023-07-02T13:55:31;8.80;;;7.80;;
28545;SDS011;15749;49.606;8.738;2023-07-02T13:58:00;10.43;;;8.80;;
28545;SDS011;15749;49.606;8.738;2023-07-02T14:00:31;10.32;;;8.07;;
28545;SDS011;15749;49.606;8.738;2023-07-02T14:03:00;9.65;;;8.50;;
28545;SDS011;15749;49.606;8.738;2023-07-02T14:05:29;10.25;;;8.75;;
28545;SDS011;15749;49.606;8.738;2023-07-02T14:07:59;10.25;;;8.95;;
28545;SDS011;15749;49.606;8.738;2023-07-02T14:10:28;9.95;;;8.70;;
28545;SDS011;15749;49.606;8.738;2023-07-02T14:12:57;11.90;;;9.07;;
28545;SDS011;15749;49.606;8.738;2023-07-02T14:15:26;10.18;;;8.13;;
28545;SDS011;15749;49.606;8.738;2023-07-02T14:17:57;8.77;;;7.88;;
28545;SDS011;15749;49.606;8.738;2023-07-02T14:20:26;9.85;;;8.85;;
28545;SDS011;15749;49.606;8.738;2023-07-02T14:22:55;9.90;;;8.73;;
28545;SDS011;15749;49.606;8.738;2023-07-02T14:25:24;9.48;;;8.48;;
28545;SDS011;15749;49.606;8.738;2023-07-02T14:28:07;10.35;;;8.70;;
28545;SDS011;15749;49.606;8.738;2023-07-02T14:30:37;8.55;;;7.60;;
28545;SDS011;15749;49.606;8.738;2023-07-02T14:33:07;11.23;;;9.18;;
28545;SDS011;15749;49.606;8.738;2023-07-02T14:35:37;10.55;;;9.10;;
28545;SDS011;15749;49.606;8.738;2023-07-02T14:38:06;10.80;;;9.30;;
28545;SDS011;15749;49.606;8.738;2023-07-02T14:40:36;10.55;;;8.25;;
28545;SDS011;15749;49.606;8.738;2023-07-02T14:43:05;11.27;;;8.27;;
28545;SDS011;15749;49.606;8.738;2023-07-02T14:45:34;9.25;;;8.00;;
28545;SDS011;15749;49.606;8.738;2023-07-02T14:48:07;9.98;;;8.48;;
28545;SDS011;15749;49.606;8.738;2023-07-02T14:50:41;10.52;;;8.50;;
28545;SDS011;15749;49.606;8.738;2023-07-02T14:53:12;9.35;;;8.27;;
28545;SDS011;15749;49.606;8.738;2023-07-02T14:55:41;10.43;;;8.70;;
28545;SDS011;15749;49.606;8.738;2023-07-02T14:58:10;9.60;;;8.50;;
28545;SDS011;15749;49.606;8.738;2023-07-02T15:00:43;9.63;;;7.65;;
28545;SDS011;15749;49.606;8.738;2023-07-02T15:03:15;8.10;;;7.25;;
28545;SDS011;15749;49.606;8.738;2023-07-02T15:05:46;8.45;;;7.25;;
28545;SDS011;15749;49.606;8.738;2023-07-02T15:08:16;10.15;;;8.00;;
28545;SDS011;15749;49.606;8.738;2023-07-02T15:10:49;9.48;;;6.75;;
28545;SDS011;15749;49.606;8.738;2023-07-02T15:13:20;10.65;;;8.10;;
28545;SDS011;15749;49.606;8.738;2023-07-02T15:15:51;10.52;;;7.80;;
28545;SDS011;15749;49.606;8.738;2023-07-02T15:18:21;10.88;;;9.70;;
28545;SDS011;15749;49.606;8.738;2023-07-02T15:20:51;10.15;;;9.02;;
28545;SDS011;15749;49.606;8.738;2023-07-02T15:23:24;11.80;;;8.73;;
28545;SDS011;15749;49.606;8.738;2023-07-02T15:25:56;9.48;;;8.35;;
28545;SDS011;15749;49.606;8.738;2023-07-02T15:28:27;10.88;;;8.55;;
28545;SDS011;15749;49.606;8.738;2023-07-02T15:31:00;9.35;;;8.27;;
28545;SDS011;15749;49.606;8.738;2023-07-02T15:33:33;9.93;;;7.53;;
28545;SDS011;15749;49.606;8.738;2023-07-02T15:36:03;11.52;;;9.10;;
28545;SDS011;15749;49.606;8.738;2023-07-02T15:38:34;9.85;;;8.57;;
28545;SDS011;15749;49.606;8.738;2023-07-02T15:41:05;11.48;;;8.77;;
28545;SDS011;15749;49.606;8.738;2023-07-02T15:43:38;9.93;;;8.20;;
28545;SDS011;15749;49.606;8.738;2023-07-02T15:46:08;9.48;;;8.45;;
28545;SDS011;15749;49.606;8.738;2023-07-02T15:48:41;9.40;;;8.27;;
28545;SDS011;15749;49.606;8.738;2023-07-02T15:51:11;10.13;;;8.68;;
28545;SDS011;15749;49.606;8.738;2023-07-02T15:53:41;9.85;;;8.60;;
28545;SDS011;15749;49.606;8.738;2023-07-02T15:56:10;8.07;;;7.28;;
28545;SDS011;15749;49.606;8.738;2023-07-02T15:58:39;8.45;;;7.57;;
28545;SDS011;15749;49.606;8.738;2023-07-02T16:01:10;9.75;;;8.27;;
28545;SDS011;15749;49.606;8.738;2023-07-02T16:03:43;9.20;;;8.25;;
28545;SDS011;15749;49.606;8.738;2023-07-02T16:06:13;8.90;;;8.00;;
28545;SDS011;15749;49.606;8.738;2023-07-02T16:08:43;9.43;;;8.20;;
28545;SDS011;15749;49.606;8.738;2023-07-02T16:11:13;10.80;;;9.18;;
28545;SDS011;15749;49.606;8.738;2023-07-02T16:13:42;9.38;;;8.38;;
28545;SDS011;15749;49.606;8.738;2023-07-02T16:16:12;8.65;;;7.75;;
28545;SDS011;15749;49.606;8.738;2023-07-02T16:18:46;8.50;;;7.47;;
28545;SDS011;15749;49.606;8.738;2023-07-02T16:21:15;8.18;;;7.20;;
28545;SDS011;15749;49.606;8.738;2023-07-02T16:23:44;8.80;;;7.55;;
28545;SDS011;15749;49.606;8.738;2023-07-02T16:26:13;8.43;;;7.53;;
28545;SDS011;15749;49.606;8.738;2023-07-02T16:28:42;7.85;;;7.05;;
28545;SDS011;15749;49.606;8.738;2023-07-02T16:31:11;8.27;;;7.43;;
28545;SDS011;15749;49.606;8.738;2023-07-02T16:33:41;10.10;;;8.23;;
28545;SDS011;15749;49.606;8.738;2023-07-02T16:36:11;8.98;;;7.38;;
28545;SDS011;15749;49.606;8.738;2023-07-02T16:38:45;11.25;;;7.97;;